sensor_id;sensor_type;location;lat;lon;timestamp;temperature;humidity
38938;DHT22;24727;51.974;20.868;2022-11-18T00:00:51;-2.00;87.00
38938;DHT22;24727;51.974;20.868;2022-11-18T00:03:17;-2.10;87.20
38938;DHT22;24727;51.974;20.868;2022-11-18T00:05:54;-2.00;88.00
38938;DHT22;24727;51.974;20.868;2022-11-18T00:08:21;-2.20;86.70
38938;DHT22;24727;51.974;20.868;2022-11-18T00:10:48;-2.10;87.80
38938;DHT22;24727;51.974;20.868;2022-11-18T00:13:14;-2.10;88.00
38938;DHT22;24727;51.974;20.868;2022-11-18T00:18:27;-2.40;85.40
38938;DHT22;24727;51.974;20.868;2022-11-18T00:20:53;-2.30;85.20
38938;DHT22;24727;51.974;20.868;2022-11-18T00:23:20;-2.40;84.20
38938;DHT22;24727;51.974;20.868;2022-11-18T00:25:46;-2.30;84.70
38938;DHT22;24727;51.974;20.868;2022-11-18T00:28:12;-2.20;85.40
38938;DHT22;24727;51.974;20.868;2022-11-18T00:30:38;-2.20;85.10
38938;DHT22;24727;51.974;20.868;2022-11-18T00:33:04;-2.20;84.60
38938;DHT22;24727;51.974;20.868;2022-11-18T00:35:30;-2.10;86.10
38938;DHT22;24727;51.974;20.868;2022-11-18T00:37:56;-1.90;86.80
38938;DHT22;24727;51.974;20.868;2022-11-18T00:40:23;-1.80;87.40
38938;DHT22;24727;51.974;20.868;2022-11-18T00:42:51;-1.80;87.50
38938;DHT22;24727;51.974;20.868;2022-11-18T00:45:22;-1.70;87.70
38938;DHT22;24727;51.974;20.868;2022-11-18T00:47:49;-1.90;85.10
38938;DHT22;24727;51.974;20.868;2022-11-18T00:50:15;-2.10;82.60
38938;DHT22;24727;51.974;20.868;2022-11-18T00:52:41;-2.00;82.60
38938;DHT22;24727;51.974;20.868;2022-11-18T00:55:07;-2.10;80.30
38938;DHT22;24727;51.974;20.868;2022-11-18T00:57:33;-2.00;80.30
38938;DHT22;24727;51.974;20.868;2022-11-18T00:59:59;-1.90;80.80
38938;DHT22;24727;51.974;20.868;2022-11-18T01:02:25;-1.80;81.40
38938;DHT22;24727;51.974;20.868;2022-11-18T01:04:53;-1.60;81.10
38938;DHT22;24727;51.974;20.868;2022-11-18T01:07:21;-1.60;79.10
38938;DHT22;24727;51.974;20.868;2022-11-18T01:09:47;-1.50;77.50
38938;DHT22;24727;51.974;20.868;2022-11-18T01:12:13;-1.50;75.60
38938;DHT22;24727;51.974;20.868;2022-11-18T01:14:58;-1.50;73.70
38938;DHT22;24727;51.974;20.868;2022-11-18T01:17:24;-1.50;71.00
38938;DHT22;24727;51.974;20.868;2022-11-18T01:19:50;-1.50;69.20
38938;DHT22;24727;51.974;20.868;2022-11-18T01:22:16;-1.40;68.70
38938;DHT22;24727;51.974;20.868;2022-11-18T01:24:43;-1.40;66.70
38938;DHT22;24727;51.974;20.868;2022-11-18T01:27:09;-1.40;61.60
38938;DHT22;24727;51.974;20.868;2022-11-18T01:29:36;-1.50;53.80
38938;DHT22;24727;51.974;20.868;2022-11-18T01:32:02;-1.40;42.10
38938;DHT22;24727;51.974;20.868;2022-11-18T01:34:28;-1.30;13.00
38938;DHT22;24727;51.974;20.868;2022-11-18T01:36:55;-1.30;1.00
38938;DHT22;24727;51.974;20.868;2022-11-18T01:39:24;-1.30;1.00
38938;DHT22;24727;51.974;20.868;2022-11-18T01:41:52;-1.30;1.00
38938;DHT22;24727;51.974;20.868;2022-11-18T01:47:19;-1.30;1.00
38938;DHT22;24727;51.974;20.868;2022-11-18T01:49:46;-1.40;1.00
38938;DHT22;24727;51.974;20.868;2022-11-18T01:52:12;-1.40;1.00
38938;DHT22;24727;51.974;20.868;2022-11-18T01:54:42;-1.30;1.00
38938;DHT22;24727;51.974;20.868;2022-11-18T01:57:15;-1.20;1.00
38938;DHT22;24727;51.974;20.868;2022-11-18T01:59:45;-1.20;1.00
38938;DHT22;24727;51.974;20.868;2022-11-18T02:02:13;-1.20;1.00
38938;DHT22;24727;51.974;20.868;2022-11-18T02:04:44;-1.20;1.00
38938;DHT22;24727;51.974;20.868;2022-11-18T02:07:12;-1.20;1.00
38938;DHT22;24727;51.974;20.868;2022-11-18T02:09:39;-1.20;1.00
38938;DHT22;24727;51.974;20.868;2022-11-18T02:12:07;-1.10;1.00
38938;DHT22;24727;51.974;20.868;2022-11-18T02:14:39;-1.10;1.00
38938;DHT22;24727;51.974;20.868;2022-11-18T02:33:46;-0.90;1.00
38938;DHT22;24727;51.974;20.868;2022-11-18T02:39:01;-1.10;1.00
38938;DHT22;24727;51.974;20.868;2022-11-18T02:41:31;-1.10;1.00
38938;DHT22;24727;51.974;20.868;2022-11-18T02:44:03;-1.20;1.00
38938;DHT22;24727;51.974;20.868;2022-11-18T02:46:35;-1.20;1.00
38938;DHT22;24727;51.974;20.868;2022-11-18T02:49:07;-1.30;1.00
38938;DHT22;24727;51.974;20.868;2022-11-18T02:51:36;-1.30;1.00
38938;DHT22;24727;51.974;20.868;2022-11-18T02:54:06;-1.20;1.00
38938;DHT22;24727;51.974;20.868;2022-11-18T02:56:34;-1.10;1.00
38938;DHT22;24727;51.974;20.868;2022-11-18T02:59:03;-0.90;1.00
38938;DHT22;24727;51.974;20.868;2022-11-18T03:01:32;-0.90;1.00
38938;DHT22;24727;51.974;20.868;2022-11-18T03:03:59;-0.80;1.00
38938;DHT22;24727;51.974;20.868;2022-11-18T03:09:03;-0.70;1.00
38938;DHT22;24727;51.974;20.868;2022-11-18T03:11:36;-0.80;1.00
38938;DHT22;24727;51.974;20.868;2022-11-18T03:16:59;-0.70;1.00
38938;DHT22;24727;51.974;20.868;2022-11-18T03:22:32;-0.60;1.00
38938;DHT22;24727;51.974;20.868;2022-11-18T03:27:50;-0.70;1.00
38938;DHT22;24727;51.974;20.868;2022-11-18T03:30:21;-1.00;1.00
38938;DHT22;24727;51.974;20.868;2022-11-18T03:33:02;-0.90;1.00
38938;DHT22;24727;51.974;20.868;2022-11-18T03:35:32;-0.90;1.00
38938;DHT22;24727;51.974;20.868;2022-11-18T03:38:10;-0.90;1.00
38938;DHT22;24727;51.974;20.868;2022-11-18T03:40:40;-1.00;1.00
38938;DHT22;24727;51.974;20.868;2022-11-18T03:43:13;-1.00;1.00
38938;DHT22;24727;51.974;20.868;2022-11-18T03:45:59;-0.90;1.00
38938;DHT22;24727;51.974;20.868;2022-11-18T03:48:35;-0.80;1.00
38938;DHT22;24727;51.974;20.868;2022-11-18T03:51:11;-0.80;1.00
38938;DHT22;24727;51.974;20.868;2022-11-18T03:53:50;-1.00;1.00
38938;DHT22;24727;51.974;20.868;2022-11-18T03:56:23;-0.90;1.00
38938;DHT22;24727;51.974;20.868;2022-11-18T03:59:04;-0.90;1.00
38938;DHT22;24727;51.974;20.868;2022-11-18T04:01:43;-0.80;1.00
38938;DHT22;24727;51.974;20.868;2022-11-18T04:04:11;-0.90;1.00
38938;DHT22;24727;51.974;20.868;2022-11-18T04:06:44;-1.00;1.00
38938;DHT22;24727;51.974;20.868;2022-11-18T04:09:23;-0.90;1.00
38938;DHT22;24727;51.974;20.868;2022-11-18T04:12:00;-1.00;1.00
38938;DHT22;24727;51.974;20.868;2022-11-18T04:14:29;-1.00;1.00
38938;DHT22;24727;51.974;20.868;2022-11-18T04:16:56;-1.00;1.00
38938;DHT22;24727;51.974;20.868;2022-11-18T04:19:22;-1.10;1.00
38938;DHT22;24727;51.974;20.868;2022-11-18T04:21:48;-0.90;1.00
38938;DHT22;24727;51.974;20.868;2022-11-18T04:24:15;-0.90;1.00
38938;DHT22;24727;51.974;20.868;2022-11-18T04:26:43;-1.10;1.00
38938;DHT22;24727;51.974;20.868;2022-11-18T04:29:09;-1.20;1.00
38938;DHT22;24727;51.974;20.868;2022-11-18T04:31:41;-1.30;1.00
38938;DHT22;24727;51.974;20.868;2022-11-18T04:34:08;-1.40;1.00
38938;DHT22;24727;51.974;20.868;2022-11-18T04:36:35;-1.50;1.00
38938;DHT22;24727;51.974;20.868;2022-11-18T04:39:02;-1.50;1.00
38938;DHT22;24727;51.974;20.868;2022-11-18T04:41:29;-1.40;1.00
38938;DHT22;24727;51.974;20.868;2022-11-18T04:44:15;-1.40;1.00
38938;DHT22;24727;51.974;20.868;2022-11-18T04:46:42;-1.50;1.00
38938;DHT22;24727;51.974;20.868;2022-11-18T04:49:09;-1.40;1.00
38938;DHT22;24727;51.974;20.868;2022-11-18T04:51:36;-1.40;1.00
38938;DHT22;24727;51.974;20.868;2022-11-18T04:54:03;-1.40;1.00
38938;DHT22;24727;51.974;20.868;2022-11-18T04:56:29;-1.40;1.00
38938;DHT22;24727;51.974;20.868;2022-11-18T04:59:00;-1.40;1.00
38938;DHT22;24727;51.974;20.868;2022-11-18T05:01:29;-1.30;1.00
38938;DHT22;24727;51.974;20.868;2022-11-18T05:03:56;-1.50;1.00
38938;DHT22;24727;51.974;20.868;2022-11-18T05:06:23;-1.50;1.00
38938;DHT22;24727;51.974;20.868;2022-11-18T05:08:49;-1.50;1.00
38938;DHT22;24727;51.974;20.868;2022-11-18T05:11:17;-1.60;1.00
38938;DHT22;24727;51.974;20.868;2022-11-18T05:14:01;-1.50;1.00
38938;DHT22;24727;51.974;20.868;2022-11-18T05:16:27;-1.50;1.00
38938;DHT22;24727;51.974;20.868;2022-11-18T05:18:54;-1.50;1.00
38938;DHT22;24727;51.974;20.868;2022-11-18T05:21:21;-1.30;1.00
38938;DHT22;24727;51.974;20.868;2022-11-18T05:23:48;-1.40;1.00
38938;DHT22;24727;51.974;20.868;2022-11-18T05:26:14;-1.40;1.00
38938;DHT22;24727;51.974;20.868;2022-11-18T05:28:40;-1.40;1.00
38938;DHT22;24727;51.974;20.868;2022-11-18T05:31:11;-1.40;1.00
38938;DHT22;24727;51.974;20.868;2022-11-18T05:33:37;-1.30;1.00
38938;DHT22;24727;51.974;20.868;2022-11-18T05:36:12;-1.10;1.00
38938;DHT22;24727;51.974;20.868;2022-11-18T05:38:40;-1.10;1.00
38938;DHT22;24727;51.974;20.868;2022-11-18T05:41:07;-1.10;1.00
38938;DHT22;24727;51.974;20.868;2022-11-18T05:43:34;-1.10;1.00
38938;DHT22;24727;51.974;20.868;2022-11-18T05:46:00;-1.00;1.00
38938;DHT22;24727;51.974;20.868;2022-11-18T05:48:27;-1.00;1.00
38938;DHT22;24727;51.974;20.868;2022-11-18T05:50:54;-0.90;1.00
38938;DHT22;24727;51.974;20.868;2022-11-18T05:53:22;-0.90;1.00
38938;DHT22;24727;51.974;20.868;2022-11-18T05:58:43;-0.90;1.00
38938;DHT22;24727;51.974;20.868;2022-11-18T06:01:09;-0.80;1.00
38938;DHT22;24727;51.974;20.868;2022-11-18T06:03:39;-1.00;1.00
38938;DHT22;24727;51.974;20.868;2022-11-18T06:06:07;-1.00;1.00
38938;DHT22;24727;51.974;20.868;2022-11-18T06:11:43;-1.00;1.00
38938;DHT22;24727;51.974;20.868;2022-11-18T06:14:15;-1.10;1.00
38938;DHT22;24727;51.974;20.868;2022-11-18T06:16:49;-0.90;1.00
38938;DHT22;24727;51.974;20.868;2022-11-18T06:19:16;-1.10;1.00
38938;DHT22;24727;51.974;20.868;2022-11-18T06:21:43;-1.10;1.00
38938;DHT22;24727;51.974;20.868;2022-11-18T06:24:11;-1.00;1.00
38938;DHT22;24727;51.974;20.868;2022-11-18T06:26:39;-1.10;1.00
38938;DHT22;24727;51.974;20.868;2022-11-18T06:29:07;-1.00;1.00
38938;DHT22;24727;51.974;20.868;2022-11-18T06:31:35;-1.00;1.00
38938;DHT22;24727;51.974;20.868;2022-11-18T06:34:01;-1.10;1.00
38938;DHT22;24727;51.974;20.868;2022-11-18T06:36:28;-1.10;1.00
38938;DHT22;24727;51.974;20.868;2022-11-18T06:38:54;-1.00;1.00
38938;DHT22;24727;51.974;20.868;2022-11-18T06:41:21;-1.10;1.00
38938;DHT22;24727;51.974;20.868;2022-11-18T06:43:47;-1.00;1.00
38938;DHT22;24727;51.974;20.868;2022-11-18T06:46:15;-0.90;1.00
38938;DHT22;24727;51.974;20.868;2022-11-18T06:49:01;-0.90;1.00
38938;DHT22;24727;51.974;20.868;2022-11-18T06:51:28;-1.00;1.00
38938;DHT22;24727;51.974;20.868;2022-11-18T06:53:54;-1.00;1.00
38938;DHT22;24727;51.974;20.868;2022-11-18T06:56:22;-1.00;1.00
38938;DHT22;24727;51.974;20.868;2022-11-18T06:58:53;-0.90;1.00
38938;DHT22;24727;51.974;20.868;2022-11-18T07:01:23;-1.10;1.00
38938;DHT22;24727;51.974;20.868;2022-11-18T07:03:50;-1.00;1.00
38938;DHT22;24727;51.974;20.868;2022-11-18T07:06:21;-0.80;1.00
38938;DHT22;24727;51.974;20.868;2022-11-18T07:08:52;-0.70;1.00
38938;DHT22;24727;51.974;20.868;2022-11-18T07:11:20;-0.60;1.00
38938;DHT22;24727;51.974;20.868;2022-11-18T07:13:47;-0.70;1.00
38938;DHT22;24727;51.974;20.868;2022-11-18T07:16:15;-0.60;1.00
38938;DHT22;24727;51.974;20.868;2022-11-18T07:18:43;-0.60;1.00
38938;DHT22;24727;51.974;20.868;2022-11-18T07:21:18;-0.60;1.00
38938;DHT22;24727;51.974;20.868;2022-11-18T07:23:46;-0.50;1.00
38938;DHT22;24727;51.974;20.868;2022-11-18T07:26:12;-0.50;1.00
38938;DHT22;24727;51.974;20.868;2022-11-18T07:28:39;-0.70;1.00
38938;DHT22;24727;51.974;20.868;2022-11-18T07:31:07;-0.70;1.00
38938;DHT22;24727;51.974;20.868;2022-11-18T07:33:34;-0.60;1.00
38938;DHT22;24727;51.974;20.868;2022-11-18T07:38:35;-0.40;1.00
38938;DHT22;24727;51.974;20.868;2022-11-18T07:41:21;-0.40;1.00
38938;DHT22;24727;51.974;20.868;2022-11-18T07:43:48;-0.50;1.00
38938;DHT22;24727;51.974;20.868;2022-11-18T07:48:48;-0.90;1.00
38938;DHT22;24727;51.974;20.868;2022-11-18T07:51:16;-0.80;1.00
38938;DHT22;24727;51.974;20.868;2022-11-18T07:53:43;-0.80;1.00
38938;DHT22;24727;51.974;20.868;2022-11-18T07:56:10;-0.70;1.00
38938;DHT22;24727;51.974;20.868;2022-11-18T07:58:37;-0.70;1.00
38938;DHT22;24727;51.974;20.868;2022-11-18T08:01:17;-0.70;1.00
38938;DHT22;24727;51.974;20.868;2022-11-18T08:03:45;-0.50;1.00
38938;DHT22;24727;51.974;20.868;2022-11-18T08:06:12;-0.50;1.00
38938;DHT22;24727;51.974;20.868;2022-11-18T08:08:41;-0.60;1.00
38938;DHT22;24727;51.974;20.868;2022-11-18T08:11:10;-0.50;1.00
38938;DHT22;24727;51.974;20.868;2022-11-18T08:13:36;-0.60;1.00
38938;DHT22;24727;51.974;20.868;2022-11-18T08:16:03;-0.50;1.00
38938;DHT22;24727;51.974;20.868;2022-11-18T08:18:30;-0.30;1.00
38938;DHT22;24727;51.974;20.868;2022-11-18T08:21:05;-0.20;1.00
38938;DHT22;24727;51.974;20.868;2022-11-18T08:23:31;-0.50;1.00
38938;DHT22;24727;51.974;20.868;2022-11-18T08:26:08;-0.40;1.00
38938;DHT22;24727;51.974;20.868;2022-11-18T08:28:35;-0.30;1.00
38938;DHT22;24727;51.974;20.868;2022-11-18T08:31:19;-0.30;1.00
38938;DHT22;24727;51.974;20.868;2022-11-18T08:33:45;-0.30;1.00
38938;DHT22;24727;51.974;20.868;2022-11-18T08:36:18;-0.30;1.00
38938;DHT22;24727;51.974;20.868;2022-11-18T08:38:45;-0.20;1.00
38938;DHT22;24727;51.974;20.868;2022-11-18T08:41:18;-0.20;1.00
38938;DHT22;24727;51.974;20.868;2022-11-18T08:43:46;-0.10;1.00
38938;DHT22;24727;51.974;20.868;2022-11-18T08:46:15;0.00;1.00
38938;DHT22;24727;51.974;20.868;2022-11-18T08:48:47;0.00;1.00
38938;DHT22;24727;51.974;20.868;2022-11-18T08:51:13;0.10;1.00
38938;DHT22;24727;51.974;20.868;2022-11-18T08:53:40;0.00;1.00
38938;DHT22;24727;51.974;20.868;2022-11-18T08:56:15;-0.20;1.00
38938;DHT22;24727;51.974;20.868;2022-11-18T08:58:42;-0.10;1.00
38938;DHT22;24727;51.974;20.868;2022-11-18T09:01:08;-0.20;1.00
38938;DHT22;24727;51.974;20.868;2022-11-18T09:03:34;-0.20;1.00
38938;DHT22;24727;51.974;20.868;2022-11-18T09:06:10;-0.10;1.00
38938;DHT22;24727;51.974;20.868;2022-11-18T09:08:37;-0.20;1.00
38938;DHT22;24727;51.974;20.868;2022-11-18T09:11:16;-0.20;1.00
38938;DHT22;24727;51.974;20.868;2022-11-18T09:13:43;-0.10;1.00
38938;DHT22;24727;51.974;20.868;2022-11-18T09:16:09;-0.10;1.00
38938;DHT22;24727;51.974;20.868;2022-11-18T09:18:37;-0.10;1.00
38938;DHT22;24727;51.974;20.868;2022-11-18T09:21:06;0.00;1.00
38938;DHT22;24727;51.974;20.868;2022-11-18T09:23:33;0.00;1.00
38938;DHT22;24727;51.974;20.868;2022-11-18T09:26:02;0.10;1.00
38938;DHT22;24727;51.974;20.868;2022-11-18T09:28:30;0.20;1.00
38938;DHT22;24727;51.974;20.868;2022-11-18T09:30:56;-0.10;1.00
38938;DHT22;24727;51.974;20.868;2022-11-18T09:33:28;0.00;1.00
38938;DHT22;24727;51.974;20.868;2022-11-18T09:35:54;0.20;1.00
38938;DHT22;24727;51.974;20.868;2022-11-18T09:38:20;0.20;1.00
38938;DHT22;24727;51.974;20.868;2022-11-18T09:46:35;-0.20;1.00
38938;DHT22;24727;51.974;20.868;2022-11-18T09:49:08;0.10;1.00
38938;DHT22;24727;51.974;20.868;2022-11-18T09:51:44;0.20;1.00
38938;DHT22;24727;51.974;20.868;2022-11-18T09:54:32;0.50;1.00
38938;DHT22;24727;51.974;20.868;2022-11-18T09:56:57;0.40;1.00
38938;DHT22;24727;51.974;20.868;2022-11-18T09:59:29;0.40;1.00
38938;DHT22;24727;51.974;20.868;2022-11-18T10:02:02;0.50;1.00
38938;DHT22;24727;51.974;20.868;2022-11-18T10:04:29;0.50;1.00
38938;DHT22;24727;51.974;20.868;2022-11-18T10:06:55;0.60;1.00
38938;DHT22;24727;51.974;20.868;2022-11-18T10:12:17;0.20;1.00
38938;DHT22;24727;51.974;20.868;2022-11-18T10:15:07;0.20;1.00
38938;DHT22;24727;51.974;20.868;2022-11-18T10:20:38;-0.50;1.00
38938;DHT22;24727;51.974;20.868;2022-11-18T10:23:32;-0.60;1.00
38938;DHT22;24727;51.974;20.868;2022-11-18T10:26:00;-0.40;1.00
38938;DHT22;24727;51.974;20.868;2022-11-18T10:28:28;-0.20;1.00
38938;DHT22;24727;51.974;20.868;2022-11-18T10:31:15;0.00;1.00
38938;DHT22;24727;51.974;20.868;2022-11-18T10:33:43;0.20;1.00
38938;DHT22;24727;51.974;20.868;2022-11-18T10:36:32;0.20;1.00
38938;DHT22;24727;51.974;20.868;2022-11-18T10:39:13;0.10;1.00
38938;DHT22;24727;51.974;20.868;2022-11-18T10:41:51;0.00;1.00
38938;DHT22;24727;51.974;20.868;2022-11-18T10:47:23;0.20;1.00
38938;DHT22;24727;51.974;20.868;2022-11-18T10:49:51;0.40;1.00
38938;DHT22;24727;51.974;20.868;2022-11-18T10:52:18;0.50;1.00
38938;DHT22;24727;51.974;20.868;2022-11-18T10:57:42;0.30;1.00
38938;DHT22;24727;51.974;20.868;2022-11-18T11:02:58;0.40;1.00
38938;DHT22;24727;51.974;20.868;2022-11-18T11:05:25;0.00;1.00
38938;DHT22;24727;51.974;20.868;2022-11-18T11:08:17;0.10;1.00
38938;DHT22;24727;51.974;20.868;2022-11-18T11:10:57;0.30;1.00
38938;DHT22;24727;51.974;20.868;2022-11-18T11:13:30;0.00;1.00
38938;DHT22;24727;51.974;20.868;2022-11-18T11:16:01;0.30;1.00
38938;DHT22;24727;51.974;20.868;2022-11-18T11:18:35;0.30;1.00
38938;DHT22;24727;51.974;20.868;2022-11-18T11:21:13;0.60;1.00
38938;DHT22;24727;51.974;20.868;2022-11-18T11:23:42;0.10;1.00
38938;DHT22;24727;51.974;20.868;2022-11-18T11:26:33;0.20;1.00
38938;DHT22;24727;51.974;20.868;2022-11-18T11:32:18;0.00;1.00
38938;DHT22;24727;51.974;20.868;2022-11-18T11:40:26;0.40;1.00
38938;DHT22;24727;51.974;20.868;2022-11-18T11:46:27;0.60;1.00
38938;DHT22;24727;51.974;20.868;2022-11-18T11:49:23;0.40;1.00
38938;DHT22;24727;51.974;20.868;2022-11-18T11:52:04;0.40;1.00
38938;DHT22;24727;51.974;20.868;2022-11-18T12:00:03;0.50;1.00
38938;DHT22;24727;51.974;20.868;2022-11-18T12:05:31;0.20;1.00
38938;DHT22;24727;51.974;20.868;2022-11-18T12:08:10;0.10;1.00
38938;DHT22;24727;51.974;20.868;2022-11-18T12:10:44;0.40;1.00
38938;DHT22;24727;51.974;20.868;2022-11-18T12:18:48;0.10;1.00
38938;DHT22;24727;51.974;20.868;2022-11-18T12:24:36;0.40;1.00
38938;DHT22;24727;51.974;20.868;2022-11-18T12:29:56;0.30;1.00
38938;DHT22;24727;51.974;20.868;2022-11-18T12:32:28;0.30;1.00
38938;DHT22;24727;51.974;20.868;2022-11-18T12:40:40;0.20;1.00
38938;DHT22;24727;51.974;20.868;2022-11-18T12:52:02;0.30;1.00
38938;DHT22;24727;51.974;20.868;2022-11-18T12:54:36;0.30;1.00
38938;DHT22;24727;51.974;20.868;2022-11-18T12:57:18;0.70;1.00
38938;DHT22;24727;51.974;20.868;2022-11-18T12:59:45;0.70;1.00
38938;DHT22;24727;51.974;20.868;2022-11-18T13:04:38;0.50;1.00
38938;DHT22;24727;51.974;20.868;2022-11-18T13:07:09;0.60;1.00
38938;DHT22;24727;51.974;20.868;2022-11-18T13:09:55;0.80;1.00
38938;DHT22;24727;51.974;20.868;2022-11-18T13:12:25;0.70;1.00
38938;DHT22;24727;51.974;20.868;2022-11-18T13:14:52;0.40;1.00
38938;DHT22;24727;51.974;20.868;2022-11-18T13:17:44;0.50;1.00
38938;DHT22;24727;51.974;20.868;2022-11-18T13:20:37;0.70;1.00
38938;DHT22;24727;51.974;20.868;2022-11-18T13:26:22;0.40;1.00
38938;DHT22;24727;51.974;20.868;2022-11-18T13:31:34;0.50;1.00
38938;DHT22;24727;51.974;20.868;2022-11-18T13:34:21;0.50;1.00
38938;DHT22;24727;51.974;20.868;2022-11-18T13:36:49;0.40;1.00
38938;DHT22;24727;51.974;20.868;2022-11-18T13:42:05;0.40;1.00
38938;DHT22;24727;51.974;20.868;2022-11-18T13:44:33;0.20;1.00
38938;DHT22;24727;51.974;20.868;2022-11-18T13:52:11;-0.10;1.00
38938;DHT22;24727;51.974;20.868;2022-11-18T13:54:39;0.20;1.00
38938;DHT22;24727;51.974;20.868;2022-11-18T13:57:16;0.10;1.00
38938;DHT22;24727;51.974;20.868;2022-11-18T13:59:47;0.10;1.00
38938;DHT22;24727;51.974;20.868;2022-11-18T14:02:15;0.00;1.00
38938;DHT22;24727;51.974;20.868;2022-11-18T14:07:26;0.30;1.00
38938;DHT22;24727;51.974;20.868;2022-11-18T14:10:06;0.50;1.00
38938;DHT22;24727;51.974;20.868;2022-11-18T14:12:34;0.30;1.00
38938;DHT22;24727;51.974;20.868;2022-11-18T14:17:56;0.10;1.00
38938;DHT22;24727;51.974;20.868;2022-11-18T14:20:25;-0.10;1.00
38938;DHT22;24727;51.974;20.868;2022-11-18T14:22:57;0.10;1.00
38938;DHT22;24727;51.974;20.868;2022-11-18T14:25:32;0.10;1.00
38938;DHT22;24727;51.974;20.868;2022-11-18T14:28:21;-0.10;1.00
38938;DHT22;24727;51.974;20.868;2022-11-18T14:31:29;-0.10;1.00
38938;DHT22;24727;51.974;20.868;2022-11-18T14:34:22;0.10;1.00
38938;DHT22;24727;51.974;20.868;2022-11-18T14:36:55;0.20;1.00
38938;DHT22;24727;51.974;20.868;2022-11-18T14:39:22;0.10;1.00
38938;DHT22;24727;51.974;20.868;2022-11-18T14:41:49;-0.20;1.00
38938;DHT22;24727;51.974;20.868;2022-11-18T14:44:17;-0.10;1.00
38938;DHT22;24727;51.974;20.868;2022-11-18T14:46:49;0.00;1.00
38938;DHT22;24727;51.974;20.868;2022-11-18T14:49:20;0.00;1.00
38938;DHT22;24727;51.974;20.868;2022-11-18T14:51:48;-0.10;1.00
38938;DHT22;24727;51.974;20.868;2022-11-18T14:54:15;0.00;1.00
38938;DHT22;24727;51.974;20.868;2022-11-18T14:56:43;0.10;1.00
38938;DHT22;24727;51.974;20.868;2022-11-18T14:59:15;0.00;1.00
38938;DHT22;24727;51.974;20.868;2022-11-18T15:01:42;0.10;1.00
38938;DHT22;24727;51.974;20.868;2022-11-18T15:04:10;-0.10;1.00
38938;DHT22;24727;51.974;20.868;2022-11-18T15:06:43;0.20;1.00
38938;DHT22;24727;51.974;20.868;2022-11-18T15:09:10;0.10;1.00
38938;DHT22;24727;51.974;20.868;2022-11-18T15:11:36;0.00;1.00
38938;DHT22;24727;51.974;20.868;2022-11-18T15:14:04;0.10;1.00
38938;DHT22;24727;51.974;20.868;2022-11-18T15:16:31;0.20;1.00
38938;DHT22;24727;51.974;20.868;2022-11-18T15:19:00;0.20;1.00
38938;DHT22;24727;51.974;20.868;2022-11-18T15:21:26;-0.10;1.00
38938;DHT22;24727;51.974;20.868;2022-11-18T15:23:52;-0.30;1.00
38938;DHT22;24727;51.974;20.868;2022-11-18T15:26:24;-0.30;1.00
38938;DHT22;24727;51.974;20.868;2022-11-18T15:28:54;-0.30;1.00
38938;DHT22;24727;51.974;20.868;2022-11-18T15:31:23;-0.20;1.00
38938;DHT22;24727;51.974;20.868;2022-11-18T15:33:49;-0.10;1.00
38938;DHT22;24727;51.974;20.868;2022-11-18T15:36:22;-0.20;1.00
38938;DHT22;24727;51.974;20.868;2022-11-18T15:38:49;-0.10;1.00
38938;DHT22;24727;51.974;20.868;2022-11-18T15:41:23;-0.20;1.00
38938;DHT22;24727;51.974;20.868;2022-11-18T15:43:52;0.00;1.00
38938;DHT22;24727;51.974;20.868;2022-11-18T15:46:21;0.00;1.00
38938;DHT22;24727;51.974;20.868;2022-11-18T15:48:49;-0.10;1.00
38938;DHT22;24727;51.974;20.868;2022-11-18T15:51:17;-0.20;1.00
38938;DHT22;24727;51.974;20.868;2022-11-18T15:53:43;-0.20;1.00
38938;DHT22;24727;51.974;20.868;2022-11-18T15:59:07;-0.10;1.00
38938;DHT22;24727;51.974;20.868;2022-11-18T16:01:37;-0.10;1.00
38938;DHT22;24727;51.974;20.868;2022-11-18T16:04:05;-0.10;1.00
38938;DHT22;24727;51.974;20.868;2022-11-18T16:06:32;-0.20;1.00
38938;DHT22;24727;51.974;20.868;2022-11-18T16:08:59;-0.20;1.00
38938;DHT22;24727;51.974;20.868;2022-11-18T16:11:25;-0.20;1.00
38938;DHT22;24727;51.974;20.868;2022-11-18T16:14:11;-0.30;1.00
38938;DHT22;24727;51.974;20.868;2022-11-18T16:16:39;-0.40;1.00
38938;DHT22;24727;51.974;20.868;2022-11-18T16:19:10;-0.40;1.00
38938;DHT22;24727;51.974;20.868;2022-11-18T16:21:39;-0.40;1.00
38938;DHT22;24727;51.974;20.868;2022-11-18T16:24:09;-0.40;1.00
38938;DHT22;24727;51.974;20.868;2022-11-18T16:26:37;-0.30;1.00
38938;DHT22;24727;51.974;20.868;2022-11-18T16:29:05;-0.40;1.00
38938;DHT22;24727;51.974;20.868;2022-11-18T16:31:32;-0.40;1.00
38938;DHT22;24727;51.974;20.868;2022-11-18T16:34:13;-0.40;1.00
38938;DHT22;24727;51.974;20.868;2022-11-18T16:36:43;-0.20;1.00
38938;DHT22;24727;51.974;20.868;2022-11-18T16:39:14;-0.30;1.00
38938;DHT22;24727;51.974;20.868;2022-11-18T16:41:42;-0.30;1.00
38938;DHT22;24727;51.974;20.868;2022-11-18T16:44:11;-0.60;1.00
38938;DHT22;24727;51.974;20.868;2022-11-18T16:47:00;-0.60;1.00
38938;DHT22;24727;51.974;20.868;2022-11-18T16:49:27;-0.70;1.00
38938;DHT22;24727;51.974;20.868;2022-11-18T16:51:55;-0.60;1.00
38938;DHT22;24727;51.974;20.868;2022-11-18T16:54:23;-0.60;1.00
38938;DHT22;24727;51.974;20.868;2022-11-18T16:56:50;-0.70;1.00
38938;DHT22;24727;51.974;20.868;2022-11-18T16:59:19;-0.60;1.00
38938;DHT22;24727;51.974;20.868;2022-11-18T17:01:46;-0.60;1.00
38938;DHT22;24727;51.974;20.868;2022-11-18T17:04:14;-0.70;1.00
38938;DHT22;24727;51.974;20.868;2022-11-18T17:06:40;-0.60;1.00
38938;DHT22;24727;51.974;20.868;2022-11-18T17:09:11;-0.60;1.00
38938;DHT22;24727;51.974;20.868;2022-11-18T17:11:37;-0.60;1.00
38938;DHT22;24727;51.974;20.868;2022-11-18T17:14:04;-0.60;1.00
38938;DHT22;24727;51.974;20.868;2022-11-18T17:16:32;-0.60;1.00
38938;DHT22;24727;51.974;20.868;2022-11-18T17:18:59;-0.70;1.00
38938;DHT22;24727;51.974;20.868;2022-11-18T17:21:28;-0.70;1.00
38938;DHT22;24727;51.974;20.868;2022-11-18T17:23:56;-0.70;1.00
38938;DHT22;24727;51.974;20.868;2022-11-18T17:26:24;-0.80;1.00
38938;DHT22;24727;51.974;20.868;2022-11-18T17:28:51;-0.80;1.00
38938;DHT22;24727;51.974;20.868;2022-11-18T17:31:19;-0.60;1.00
38938;DHT22;24727;51.974;20.868;2022-11-18T17:33:46;-0.70;1.00
38938;DHT22;24727;51.974;20.868;2022-11-18T17:36:17;-0.70;1.00
38938;DHT22;24727;51.974;20.868;2022-11-18T17:38:46;-0.80;1.00
38938;DHT22;24727;51.974;20.868;2022-11-18T17:41:15;-0.70;1.00
38938;DHT22;24727;51.974;20.868;2022-11-18T17:44:01;-0.80;1.00
38938;DHT22;24727;51.974;20.868;2022-11-18T17:46:28;-0.80;1.00
38938;DHT22;24727;51.974;20.868;2022-11-18T17:48:55;-0.90;1.00
38938;DHT22;24727;51.974;20.868;2022-11-18T17:51:25;-1.00;1.00
38938;DHT22;24727;51.974;20.868;2022-11-18T17:53:51;-1.00;1.00
38938;DHT22;24727;51.974;20.868;2022-11-18T17:56:18;-0.70;1.00
38938;DHT22;24727;51.974;20.868;2022-11-18T17:58:46;-1.00;1.00
38938;DHT22;24727;51.974;20.868;2022-11-18T18:01:15;-1.00;1.00
38938;DHT22;24727;51.974;20.868;2022-11-18T18:03:41;-1.10;1.00
38938;DHT22;24727;51.974;20.868;2022-11-18T18:06:09;-1.20;1.00
38938;DHT22;24727;51.974;20.868;2022-11-18T18:08:36;-1.20;1.00
38938;DHT22;24727;51.974;20.868;2022-11-18T18:11:14;-1.20;1.00